SACO/COR METAR and TAF weather

Enter ICAO airport designator
Station Type Date Time Source
SACO METAR 2020/05/30 04:00 UTC NOAA

SACO 300400Z 16006KT CAVOK 08/07 Q1016 NOSIG


Station Type Date Time Source
SACO Decoded METAR 2020/05/30 04:00 UTC NOAA

Cordoba Aerodrome, Argentina (SACO) 31-19S 064-13W 474M
May 30, 2020 - 12:00 AM EDT / 2020.05.30 0400 UTC
Wind: from the SSE (160 degrees) at 7 MPH (6 KT):0
Visibility: greater than 7 mile(s):0
Temperature: 46 F (8 C)
Dew Point: 44 F (7 C)
Relative Humidity: 93%
Pressure (altimeter): 30.00 in. Hg (1016 hPa)
ob: SACO 300400Z 16006KT CAVOK 08/07 Q1016 NOSIG
cycle: 4

Station Type Date Time Source
SACO TAF 2020/05/30 00:00 UTC NOAA

TAF SACO 292300Z 3000/3024 23005KT CAVOK TX15/3018Z TN08/3010Z
BECMG 3002/3005 20005KT 9999 BKN020 PROB40
TEMPO 3009/3012 5000 BR BKN010
BECMG 3012/3014 18015G30KT 9999 BKN030

Example: see airport list